ECPLF LEGR-LEGR
Flight info
| Callsign | ECPLF |
|---|---|
| Flight time | 0h 26m |
| Altitude | 4500 |
| Route | VFR/ N1/S1/ |
| Aircraft | S76/L-SFG/C |
Departure
| Time | 2026-04-29 19:21 |
|---|---|
| Airport | F.G.L. Airport Granada-Jaén Airport (LEGR) |
Arrival
| Time | 2026-04-29 19:47 |
|---|---|
| Airport | F.G.L. Airport Granada-Jaén Airport (LEGR) |
| Time | Latitude | Longitude | Altitude | Speed | Heading |
|---|---|---|---|---|---|
| 2026-04-29 19:08 | 37.18668 | -3.77346 | 1836 ft | 0 kts | 270° |
| 2026-04-29 19:13 | 37.18668 | -3.77363 | 1864 ft | 1 kts | 283° |
| 2026-04-29 19:15 | 37.18671 | -3.77373 | 1864 ft | 2 kts | 311° |
| 2026-04-29 19:15 | 37.18706 | -3.77458 | 1863 ft | 19 kts | 270° |
| 2026-04-29 19:15 | 37.18705 | -3.77633 | 1861 ft | 25 kts | 269° |
| 2026-04-29 19:16 | 37.18707 | -3.77871 | 1864 ft | 27 kts | 270° |
| 2026-04-29 19:16 | 37.18704 | -3.78101 | 1862 ft | 29 kts | 270° |
| 2026-04-29 19:16 | 37.18703 | -3.78387 | 1865 ft | 37 kts | 269° |
| 2026-04-29 19:16 | 37.18701 | -3.78726 | 1862 ft | 42 kts | 270° |
| 2026-04-29 19:17 | 37.18696 | -3.79106 | 1862 ft | 37 kts | 270° |
| 2026-04-29 19:17 | 37.18698 | -3.79338 | 1863 ft | 19 kts | 266° |
| 2026-04-29 19:17 | 37.18740 | -3.79399 | 1862 ft | 9 kts | 357° |
| 2026-04-29 19:17 | 37.18770 | -3.79389 | 1861 ft | 0 kts | 35° |
| 2026-04-29 19:19 | 37.18782 | -3.79381 | 1861 ft | 11 kts | 29° |
| 2026-04-29 19:19 | 37.18876 | -3.79269 | 1861 ft | 18 kts | 76° |
| 2026-04-29 19:19 | 37.18877 | -3.79121 | 1865 ft | 30 kts | 86° |
| 2026-04-29 19:19 | 37.18863 | -3.78686 | 1869 ft | 67 kts | 84° |
| 2026-04-29 19:20 | 37.18888 | -3.78012 | 1945 ft | 79 kts | 82° |
| 2026-04-29 19:20 | 37.18998 | -3.77347 | 2067 ft | 77 kts | 78° |
| 2026-04-29 19:20 | 37.19148 | -3.76637 | 2086 ft | 92 kts | 74° |
| 2026-04-29 19:20 | 37.19357 | -3.75767 | 2102 ft | 112 kts | 74° |
| 2026-04-29 19:21 | 37.19588 | -3.74818 | 2218 ft | 117 kts | 74° |
| 2026-04-29 19:21 | 37.19617 | -3.73817 | 2350 ft | 119 kts | 108° |
| 2026-04-29 19:21 | 37.19410 | -3.72804 | 2513 ft | 117 kts | 106° |
| 2026-04-29 19:21 | 37.19217 | -3.71854 | 2735 ft | 110 kts | 109° |
| 2026-04-29 19:22 | 37.19059 | -3.70925 | 2941 ft | 107 kts | 108° |
| 2026-04-29 19:22 | 37.18914 | -3.70043 | 3148 ft | 100 kts | 105° |
| 2026-04-29 19:22 | 37.18779 | -3.69206 | 3356 ft | 95 kts | 105° |
| 2026-04-29 19:22 | 37.18660 | -3.68405 | 3568 ft | 92 kts | 106° |
| 2026-04-29 19:23 | 37.18536 | -3.67618 | 3787 ft | 92 kts | 106° |
| 2026-04-29 19:23 | 37.18418 | -3.66846 | 3993 ft | 87 kts | 107° |
| 2026-04-29 19:23 | 37.18319 | -3.66116 | 4198 ft | 84 kts | 95° |
| 2026-04-29 19:23 | 37.18409 | -3.65405 | 4407 ft | 82 kts | 83° |
| 2026-04-29 19:24 | 37.18572 | -3.64705 | 4520 ft | 90 kts | 68° |
| 2026-04-29 19:24 | 37.18830 | -3.63908 | 4544 ft | 110 kts | 69° |
| 2026-04-29 19:24 | 37.19143 | -3.62954 | 4539 ft | 124 kts | 62° |
| 2026-04-29 19:24 | 37.19787 | -3.62224 | 4537 ft | 126 kts | 32° |
| 2026-04-29 19:25 | 37.20534 | -3.61680 | 4528 ft | 122 kts | 27° |
| 2026-04-29 19:25 | 37.21289 | -3.61367 | 4517 ft | 111 kts | 6° |
| 2026-04-29 19:25 | 37.22007 | -3.61117 | 4512 ft | 107 kts | 29° |
| 2026-04-29 19:25 | 37.22512 | -3.60441 | 4519 ft | 108 kts | 67° |
| 2026-04-29 19:26 | 37.22713 | -3.59534 | 4518 ft | 108 kts | 101° |
| 2026-04-29 19:26 | 37.22374 | -3.58778 | 4524 ft | 99 kts | 136° |
| 2026-04-29 19:26 | 37.21902 | -3.58162 | 4526 ft | 95 kts | 161° |
| 2026-04-29 19:26 | 37.21275 | -3.57991 | 4529 ft | 95 kts | 175° |
| 2026-04-29 19:27 | 37.20608 | -3.57836 | 4535 ft | 99 kts | 174° |
| 2026-04-29 19:27 | 37.19954 | -3.57927 | 4533 ft | 95 kts | 216° |
| 2026-04-29 19:27 | 37.19472 | -3.58502 | 4530 ft | 96 kts | 228° |
| 2026-04-29 19:27 | 37.19130 | -3.59235 | 4533 ft | 102 kts | 255° |
| 2026-04-29 19:28 | 37.19300 | -3.60096 | 4537 ft | 110 kts | 308° |
| 2026-04-29 19:28 | 37.19957 | -3.60614 | 4536 ft | 112 kts | 327° |
| 2026-04-29 19:28 | 37.20647 | -3.61101 | 4531 ft | 115 kts | 327° |
| 2026-04-29 19:28 | 37.21347 | -3.61579 | 4532 ft | 114 kts | 327° |
| 2026-04-29 19:29 | 37.22039 | -3.62055 | 4527 ft | 113 kts | 326° |
| 2026-04-29 19:29 | 37.22721 | -3.62521 | 4531 ft | 111 kts | 326° |
| 2026-04-29 19:29 | 37.23399 | -3.62992 | 4529 ft | 112 kts | 327° |
| 2026-04-29 19:29 | 37.24083 | -3.63462 | 4528 ft | 112 kts | 326° |
| 2026-04-29 19:30 | 37.24765 | -3.63927 | 4527 ft | 112 kts | 326° |
| 2026-04-29 19:30 | 37.25455 | -3.64384 | 4530 ft | 112 kts | 327° |
| 2026-04-29 19:30 | 37.25905 | -3.64695 | 4532 ft | 111 kts | 325° |
| 2026-04-29 19:30 | 37.26819 | -3.65317 | 4524 ft | 111 kts | 326° |
| 2026-04-29 19:31 | 37.27258 | -3.65619 | 4520 ft | 107 kts | 327° |
| 2026-04-29 19:31 | 37.27910 | -3.66070 | 4518 ft | 107 kts | 327° |
| 2026-04-29 19:31 | 37.28584 | -3.66487 | 4505 ft | 107 kts | 324° |
| 2026-04-29 19:31 | 37.28903 | -3.67189 | 4515 ft | 92 kts | 263° |
| 2026-04-29 19:32 | 37.28847 | -3.68262 | 4522 ft | 95 kts | 264° |
| 2026-04-29 19:32 | 37.28823 | -3.68824 | 4524 ft | 96 kts | 264° |
| 2026-04-29 19:32 | 37.28794 | -3.69672 | 4531 ft | 98 kts | 265° |
| 2026-04-29 19:32 | 37.28757 | -3.70535 | 4532 ft | 98 kts | 265° |
| 2026-04-29 19:33 | 37.28722 | -3.71399 | 4531 ft | 100 kts | 265° |
| 2026-04-29 19:33 | 37.28683 | -3.72284 | 4526 ft | 102 kts | 265° |
| 2026-04-29 19:33 | 37.28642 | -3.73170 | 4533 ft | 102 kts | 264° |
| 2026-04-29 19:33 | 37.28598 | -3.74069 | 4532 ft | 104 kts | 264° |
| 2026-04-29 19:34 | 37.28551 | -3.74979 | 4525 ft | 104 kts | 264° |
| 2026-04-29 19:34 | 37.28507 | -3.75875 | 4526 ft | 102 kts | 265° |
| 2026-04-29 19:34 | 37.28452 | -3.76767 | 4533 ft | 103 kts | 264° |
| 2026-04-29 19:34 | 37.28407 | -3.77669 | 4521 ft | 103 kts | 265° |
| 2026-04-29 19:35 | 37.28356 | -3.78559 | 4514 ft | 101 kts | 264° |
| 2026-04-29 19:35 | 37.28312 | -3.79446 | 4516 ft | 103 kts | 265° |
| 2026-04-29 19:35 | 37.28270 | -3.80343 | 4511 ft | 103 kts | 265° |
| 2026-04-29 19:35 | 37.28227 | -3.81231 | 4517 ft | 103 kts | 264° |
| 2026-04-29 19:36 | 37.28187 | -3.82117 | 4517 ft | 103 kts | 264° |
| 2026-04-29 19:36 | 37.28144 | -3.83010 | 4514 ft | 102 kts | 264° |
| 2026-04-29 19:36 | 37.28106 | -3.83875 | 4517 ft | 95 kts | 264° |
| 2026-04-29 19:36 | 37.28075 | -3.84681 | 4515 ft | 90 kts | 265° |
| 2026-04-29 19:37 | 37.28035 | -3.85491 | 4518 ft | 96 kts | 264° |
| 2026-04-29 19:37 | 37.28011 | -3.86064 | 4517 ft | 99 kts | 264° |
| 2026-04-29 19:37 | 37.27957 | -3.87195 | 4523 ft | 97 kts | 264° |
| 2026-04-29 19:37 | 37.27920 | -3.88053 | 4521 ft | 99 kts | 264° |
| 2026-04-29 19:38 | 37.27888 | -3.88921 | 4521 ft | 97 kts | 265° |
| 2026-04-29 19:38 | 37.27741 | -3.89722 | 4516 ft | 97 kts | 234° |
| 2026-04-29 19:38 | 37.27221 | -3.90258 | 4512 ft | 96 kts | 218° |
| 2026-04-29 19:38 | 37.26678 | -3.90789 | 4409 ft | 105 kts | 220° |
| 2026-04-29 19:39 | 37.26073 | -3.91376 | 4224 ft | 113 kts | 219° |
| 2026-04-29 19:39 | 37.25435 | -3.91992 | 4047 ft | 118 kts | 220° |
| 2026-04-29 19:39 | 37.24765 | -3.92633 | 3864 ft | 123 kts | 219° |
| 2026-04-29 19:39 | 37.24083 | -3.93291 | 3677 ft | 125 kts | 220° |
| 2026-04-29 19:40 | 37.23395 | -3.93965 | 3526 ft | 124 kts | 220° |
| 2026-04-29 19:40 | 37.22742 | -3.94605 | 3519 ft | 115 kts | 219° |
| 2026-04-29 19:40 | 37.22130 | -3.95204 | 3513 ft | 110 kts | 220° |
| 2026-04-29 19:40 | 37.21541 | -3.95789 | 3512 ft | 106 kts | 219° |
| 2026-04-29 19:41 | 37.20967 | -3.96342 | 3515 ft | 104 kts | 219° |
| 2026-04-29 19:41 | 37.20390 | -3.96898 | 3518 ft | 105 kts | 219° |
| 2026-04-29 19:41 | 37.19806 | -3.97465 | 3512 ft | 107 kts | 219° |
| 2026-04-29 19:41 | 37.19194 | -3.97967 | 3510 ft | 107 kts | 198° |
| 2026-04-29 19:42 | 37.18526 | -3.97668 | 3509 ft | 111 kts | 129° |
| 2026-04-29 19:42 | 37.18419 | -3.97034 | 3513 ft | 115 kts | 81° |
| 2026-04-29 19:42 | 37.18566 | -3.95750 | 3515 ft | 111 kts | 103° |
| 2026-04-29 19:42 | 37.18403 | -3.94800 | 3514 ft | 116 kts | 91° |
| 2026-04-29 19:43 | 37.18633 | -3.93825 | 3521 ft | 118 kts | 82° |
| 2026-04-29 19:43 | 37.18696 | -3.92809 | 3522 ft | 118 kts | 89° |
| 2026-04-29 19:43 | 37.18738 | -3.91789 | 3519 ft | 116 kts | 91° |
| 2026-04-29 19:43 | 37.18762 | -3.90776 | 3433 ft | 121 kts | 92° |
| 2026-04-29 19:44 | 37.18781 | -3.89681 | 3262 ft | 128 kts | 92° |
| 2026-04-29 19:44 | 37.18788 | -3.88651 | 3251 ft | 105 kts | 95° |
| 2026-04-29 19:44 | 37.18794 | -3.87821 | 3145 ft | 88 kts | 96° |
| 2026-04-29 19:44 | 37.18801 | -3.87090 | 3040 ft | 75 kts | 96° |
| 2026-04-29 19:45 | 37.18808 | -3.86434 | 2876 ft | 89 kts | 92° |
| 2026-04-29 19:45 | 37.18807 | -3.85596 | 2862 ft | 102 kts | 94° |
| 2026-04-29 19:45 | 37.18817 | -3.84640 | 2770 ft | 117 kts | 94° |
| 2026-04-29 19:45 | 37.18828 | -3.83746 | 2732 ft | 96 kts | 93° |
| 2026-04-29 19:46 | 37.18849 | -3.82927 | 2536 ft | 94 kts | 92° |
| 2026-04-29 19:46 | 37.18866 | -3.82075 | 2388 ft | 97 kts | 100° |
| 2026-04-29 19:46 | 37.18866 | -3.81221 | 2230 ft | 96 kts | 95° |
| 2026-04-29 19:46 | 37.18872 | -3.80386 | 2089 ft | 92 kts | 93° |
| 2026-04-29 19:47 | 37.18881 | -3.79628 | 1982 ft | 84 kts | 95° |
| 2026-04-29 19:47 | 37.18864 | -3.78915 | 1871 ft | 78 kts | 92° |
| 2026-04-29 19:47 | 37.18854 | -3.78410 | 1865 ft | 41 kts | 88° |
| 2026-04-29 19:47 | 37.18861 | -3.78173 | 1865 ft | 22 kts | 85° |
| 2026-04-29 19:48 | 37.18865 | -3.77865 | 1859 ft | 47 kts | 93° |
| 2026-04-29 19:48 | 37.18865 | -3.77629 | 1862 ft | 37 kts | 85° |
| 2026-04-29 19:48 | 37.18843 | -3.77151 | 1864 ft | 35 kts | 105° |
| 2026-04-29 19:48 | 37.18768 | -3.76946 | 1860 ft | 6 kts | 129° |
| 2026-04-29 19:49 | 37.18757 | -3.76941 | 1860 ft | 8 kts | 185° |
| 2026-04-29 19:49 | 37.18714 | -3.77091 | 1860 ft | 23 kts | 264° |
| 2026-04-29 19:49 | 37.18707 | -3.77248 | 1861 ft | 12 kts | 252° |
| 2026-04-29 19:49 | 37.18674 | -3.77274 | 1862 ft | 8 kts | 182° |
| 2026-04-29 19:50 | 37.18655 | -3.77296 | 1863 ft | 2 kts | 255° |